<?xml version="1.0" encoding="UTF-8"?>
<gpx xmlns:xsi="http://www.w3.org/2001/XMLSchema-instance" xsi:schemaLocation="http://www.topografix.com/GPX/1/1 http://www.topografix.com/GPX/1/1/gpx.xsd" creator="StravaGPX" version="1.1" xmlns="http://www.topografix.com/GPX/1/1">
 <metadata>
  <time>2025-12-17T10:24:42Z</time>
 </metadata>
 <trk>
  <name>Before lunch</name>
  <type>walking</type>
  <trkseg>
   <trkpt lat="53.4510230" lon="-6.1570190">
    <ele>8.8</ele>
    <time>2025-12-17T10:24:42Z</time>
   </trkpt>
   <trkpt lat="53.4510720" lon="-6.1570150">
    <ele>8.7</ele>
    <time>2025-12-17T10:26:07Z</time>
   </trkpt>
   <trkpt lat="53.4511400" lon="-6.1569940">
    <ele>8.7</ele>
    <time>2025-12-17T10:26:13Z</time>
   </trkpt>
   <trkpt lat="53.4511360" lon="-6.1570940">
    <ele>8.7</ele>
    <time>2025-12-17T10:26:20Z</time>
   </trkpt>
   <trkpt lat="53.4511310" lon="-6.1571970">
    <ele>8.8</ele>
    <time>2025-12-17T10:26:25Z</time>
   </trkpt>
   <trkpt lat="53.4510540" lon="-6.1572970">
    <ele>8.9</ele>
    <time>2025-12-17T10:26:31Z</time>
   </trkpt>
   <trkpt lat="53.4510240" lon="-6.1573930">
    <ele>8.0</ele>
    <time>2025-12-17T10:26:36Z</time>
   </trkpt>
   <trkpt lat="53.4510130" lon="-6.1575360">
    <ele>8.3</ele>
    <time>2025-12-17T10:26:41Z</time>
   </trkpt>
   <trkpt lat="53.4510170" lon="-6.1577020">
    <ele>8.4</ele>
    <time>2025-12-17T10:26:46Z</time>
   </trkpt>
   <trkpt lat="53.4509970" lon="-6.1578280">
    <ele>8.5</ele>
    <time>2025-12-17T10:26:51Z</time>
   </trkpt>
   <trkpt lat="53.4509750" lon="-6.1579350">
    <ele>8.5</ele>
    <time>2025-12-17T10:26:57Z</time>
   </trkpt>
   <trkpt lat="53.4509520" lon="-6.1580600">
    <ele>8.5</ele>
    <time>2025-12-17T10:27:02Z</time>
   </trkpt>
   <trkpt lat="53.4509160" lon="-6.1581590">
    <ele>8.5</ele>
    <time>2025-12-17T10:27:07Z</time>
   </trkpt>
   <trkpt lat="53.4509280" lon="-6.1583000">
    <ele>8.5</ele>
    <time>2025-12-17T10:27:12Z</time>
   </trkpt>
   <trkpt lat="53.4509140" lon="-6.1584010">
    <ele>9.0</ele>
    <time>2025-12-17T10:27:18Z</time>
   </trkpt>
   <trkpt lat="53.4508570" lon="-6.1584750">
    <ele>9.8</ele>
    <time>2025-12-17T10:27:23Z</time>
   </trkpt>
   <trkpt lat="53.4508120" lon="-6.1585680">
    <ele>10.1</ele>
    <time>2025-12-17T10:27:28Z</time>
   </trkpt>
   <trkpt lat="53.4507670" lon="-6.1586520">
    <ele>10.2</ele>
    <time>2025-12-17T10:27:34Z</time>
   </trkpt>
   <trkpt lat="53.4506830" lon="-6.1586590">
    <ele>10.6</ele>
    <time>2025-12-17T10:27:40Z</time>
   </trkpt>
   <trkpt lat="53.4505980" lon="-6.1586780">
    <ele>11.4</ele>
    <time>2025-12-17T10:27:45Z</time>
   </trkpt>
   <trkpt lat="53.4505130" lon="-6.1586700">
    <ele>11.8</ele>
    <time>2025-12-17T10:27:51Z</time>
   </trkpt>
   <trkpt lat="53.4504510" lon="-6.1585900">
    <ele>11.9</ele>
    <time>2025-12-17T10:27:56Z</time>
   </trkpt>
   <trkpt lat="53.4503900" lon="-6.1585980">
    <ele>11.9</ele>
    <time>2025-12-17T10:28:06Z</time>
   </trkpt>
   <trkpt lat="53.4502930" lon="-6.1587060">
    <ele>11.9</ele>
    <time>2025-12-17T10:28:11Z</time>
   </trkpt>
   <trkpt lat="53.4502860" lon="-6.1589190">
    <ele>11.9</ele>
    <time>2025-12-17T10:28:17Z</time>
   </trkpt>
   <trkpt lat="53.4502640" lon="-6.1590530">
    <ele>11.9</ele>
    <time>2025-12-17T10:28:22Z</time>
   </trkpt>
   <trkpt lat="53.4501980" lon="-6.1590810">
    <ele>11.9</ele>
    <time>2025-12-17T10:28:27Z</time>
   </trkpt>
   <trkpt lat="53.4501330" lon="-6.1590400">
    <ele>11.9</ele>
    <time>2025-12-17T10:28:32Z</time>
   </trkpt>
   <trkpt lat="53.4500850" lon="-6.1589540">
    <ele>12.3</ele>
    <time>2025-12-17T10:28:38Z</time>
   </trkpt>
   <trkpt lat="53.4500360" lon="-6.1588630">
    <ele>13.1</ele>
    <time>2025-12-17T10:28:43Z</time>
   </trkpt>
   <trkpt lat="53.4500040" lon="-6.1587470">
    <ele>13.6</ele>
    <time>2025-12-17T10:28:48Z</time>
   </trkpt>
   <trkpt lat="53.4500110" lon="-6.1586310">
    <ele>13.7</ele>
    <time>2025-12-17T10:28:53Z</time>
   </trkpt>
   <trkpt lat="53.4500350" lon="-6.1585160">
    <ele>13.6</ele>
    <time>2025-12-17T10:28:59Z</time>
   </trkpt>
   <trkpt lat="53.4500370" lon="-6.1584090">
    <ele>13.7</ele>
    <time>2025-12-17T10:29:04Z</time>
   </trkpt>
   <trkpt lat="53.4499830" lon="-6.1583990">
    <ele>13.8</ele>
    <time>2025-12-17T10:29:24Z</time>
   </trkpt>
   <trkpt lat="53.4498890" lon="-6.1585050">
    <ele>13.8</ele>
    <time>2025-12-17T10:29:29Z</time>
   </trkpt>
   <trkpt lat="53.4498120" lon="-6.1585590">
    <ele>13.8</ele>
    <time>2025-12-17T10:29:34Z</time>
   </trkpt>
   <trkpt lat="53.4497260" lon="-6.1585960">
    <ele>13.8</ele>
    <time>2025-12-17T10:29:39Z</time>
   </trkpt>
   <trkpt lat="53.4496440" lon="-6.1586010">
    <ele>13.8</ele>
    <time>2025-12-17T10:29:45Z</time>
   </trkpt>
   <trkpt lat="53.4495700" lon="-6.1585990">
    <ele>13.8</ele>
    <time>2025-12-17T10:29:50Z</time>
   </trkpt>
   <trkpt lat="53.4494960" lon="-6.1586000">
    <ele>13.8</ele>
    <time>2025-12-17T10:29:55Z</time>
   </trkpt>
   <trkpt lat="53.4494110" lon="-6.1585840">
    <ele>13.8</ele>
    <time>2025-12-17T10:30:01Z</time>
   </trkpt>
   <trkpt lat="53.4493260" lon="-6.1585790">
    <ele>13.8</ele>
    <time>2025-12-17T10:30:07Z</time>
   </trkpt>
   <trkpt lat="53.4492330" lon="-6.1585760">
    <ele>13.8</ele>
    <time>2025-12-17T10:30:12Z</time>
   </trkpt>
   <trkpt lat="53.4491510" lon="-6.1585610">
    <ele>13.8</ele>
    <time>2025-12-17T10:30:17Z</time>
   </trkpt>
   <trkpt lat="53.4490790" lon="-6.1585710">
    <ele>13.8</ele>
    <time>2025-12-17T10:30:22Z</time>
   </trkpt>
   <trkpt lat="53.4490000" lon="-6.1585900">
    <ele>13.8</ele>
    <time>2025-12-17T10:30:28Z</time>
   </trkpt>
   <trkpt lat="53.4489330" lon="-6.1585930">
    <ele>13.8</ele>
    <time>2025-12-17T10:30:33Z</time>
   </trkpt>
   <trkpt lat="53.4488590" lon="-6.1585930">
    <ele>13.8</ele>
    <time>2025-12-17T10:30:38Z</time>
   </trkpt>
   <trkpt lat="53.4487830" lon="-6.1586650">
    <ele>13.8</ele>
    <time>2025-12-17T10:30:44Z</time>
   </trkpt>
   <trkpt lat="53.4487270" lon="-6.1587510">
    <ele>13.8</ele>
    <time>2025-12-17T10:30:49Z</time>
   </trkpt>
   <trkpt lat="53.4486700" lon="-6.1587810">
    <ele>13.8</ele>
    <time>2025-12-17T10:30:54Z</time>
   </trkpt>
   <trkpt lat="53.4486530" lon="-6.1588760">
    <ele>13.8</ele>
    <time>2025-12-17T10:31:02Z</time>
   </trkpt>
   <trkpt lat="53.4485630" lon="-6.1590420">
    <ele>13.8</ele>
    <time>2025-12-17T10:31:07Z</time>
   </trkpt>
   <trkpt lat="53.4484620" lon="-6.1590970">
    <ele>13.7</ele>
    <time>2025-12-17T10:31:13Z</time>
   </trkpt>
   <trkpt lat="53.4483820" lon="-6.1591570">
    <ele>13.7</ele>
    <time>2025-12-17T10:31:19Z</time>
   </trkpt>
   <trkpt lat="53.4483000" lon="-6.1592590">
    <ele>14.0</ele>
    <time>2025-12-17T10:31:25Z</time>
   </trkpt>
   <trkpt lat="53.4482190" lon="-6.1593600">
    <ele>14.4</ele>
    <time>2025-12-17T10:31:31Z</time>
   </trkpt>
   <trkpt lat="53.4481560" lon="-6.1594790">
    <ele>14.8</ele>
    <time>2025-12-17T10:31:36Z</time>
   </trkpt>
   <trkpt lat="53.4481030" lon="-6.1596240">
    <ele>15.1</ele>
    <time>2025-12-17T10:31:41Z</time>
   </trkpt>
   <trkpt lat="53.4480780" lon="-6.1597680">
    <ele>15.5</ele>
    <time>2025-12-17T10:31:46Z</time>
   </trkpt>
   <trkpt lat="53.4480540" lon="-6.1598950">
    <ele>15.9</ele>
    <time>2025-12-17T10:31:52Z</time>
   </trkpt>
   <trkpt lat="53.4480460" lon="-6.1600030">
    <ele>16.4</ele>
    <time>2025-12-17T10:31:57Z</time>
   </trkpt>
   <trkpt lat="53.4480070" lon="-6.1601500">
    <ele>16.6</ele>
    <time>2025-12-17T10:32:03Z</time>
   </trkpt>
   <trkpt lat="53.4480000" lon="-6.1603210">
    <ele>16.4</ele>
    <time>2025-12-17T10:32:09Z</time>
   </trkpt>
   <trkpt lat="53.4480140" lon="-6.1604680">
    <ele>16.1</ele>
    <time>2025-12-17T10:32:14Z</time>
   </trkpt>
   <trkpt lat="53.4480300" lon="-6.1606140">
    <ele>15.9</ele>
    <time>2025-12-17T10:32:20Z</time>
   </trkpt>
   <trkpt lat="53.4480530" lon="-6.1607430">
    <ele>15.9</ele>
    <time>2025-12-17T10:32:25Z</time>
   </trkpt>
   <trkpt lat="53.4480790" lon="-6.1608820">
    <ele>15.9</ele>
    <time>2025-12-17T10:32:31Z</time>
   </trkpt>
   <trkpt lat="53.4481100" lon="-6.1610020">
    <ele>15.9</ele>
    <time>2025-12-17T10:32:36Z</time>
   </trkpt>
   <trkpt lat="53.4481460" lon="-6.1611020">
    <ele>16.0</ele>
    <time>2025-12-17T10:32:41Z</time>
   </trkpt>
   <trkpt lat="53.4482030" lon="-6.1611990">
    <ele>16.1</ele>
    <time>2025-12-17T10:32:46Z</time>
   </trkpt>
   <trkpt lat="53.4482860" lon="-6.1612650">
    <ele>16.2</ele>
    <time>2025-12-17T10:32:51Z</time>
   </trkpt>
   <trkpt lat="53.4483580" lon="-6.1613130">
    <ele>16.1</ele>
    <time>2025-12-17T10:32:56Z</time>
   </trkpt>
   <trkpt lat="53.4484150" lon="-6.1614290">
    <ele>15.9</ele>
    <time>2025-12-17T10:33:01Z</time>
   </trkpt>
   <trkpt lat="53.4484730" lon="-6.1615430">
    <ele>15.7</ele>
    <time>2025-12-17T10:33:07Z</time>
   </trkpt>
   <trkpt lat="53.4485390" lon="-6.1616130">
    <ele>15.5</ele>
    <time>2025-12-17T10:33:12Z</time>
   </trkpt>
   <trkpt lat="53.4486160" lon="-6.1616050">
    <ele>15.1</ele>
    <time>2025-12-17T10:33:17Z</time>
   </trkpt>
   <trkpt lat="53.4487060" lon="-6.1615870">
    <ele>14.6</ele>
    <time>2025-12-17T10:33:22Z</time>
   </trkpt>
   <trkpt lat="53.4487850" lon="-6.1615840">
    <ele>14.1</ele>
    <time>2025-12-17T10:33:27Z</time>
   </trkpt>
   <trkpt lat="53.4488530" lon="-6.1615820">
    <ele>13.9</ele>
    <time>2025-12-17T10:33:33Z</time>
   </trkpt>
   <trkpt lat="53.4489180" lon="-6.1615860">
    <ele>13.8</ele>
    <time>2025-12-17T10:33:38Z</time>
   </trkpt>
   <trkpt lat="53.4489770" lon="-6.1616060">
    <ele>13.6</ele>
    <time>2025-12-17T10:33:43Z</time>
   </trkpt>
   <trkpt lat="53.4490560" lon="-6.1616470">
    <ele>13.3</ele>
    <time>2025-12-17T10:33:49Z</time>
   </trkpt>
   <trkpt lat="53.4491070" lon="-6.1617550">
    <ele>13.2</ele>
    <time>2025-12-17T10:33:54Z</time>
   </trkpt>
   <trkpt lat="53.4491230" lon="-6.1619170">
    <ele>13.0</ele>
    <time>2025-12-17T10:33:59Z</time>
   </trkpt>
   <trkpt lat="53.4491160" lon="-6.1620460">
    <ele>12.9</ele>
    <time>2025-12-17T10:34:04Z</time>
   </trkpt>
   <trkpt lat="53.4491230" lon="-6.1621840">
    <ele>12.9</ele>
    <time>2025-12-17T10:34:10Z</time>
   </trkpt>
   <trkpt lat="53.4491160" lon="-6.1623040">
    <ele>13.1</ele>
    <time>2025-12-17T10:34:15Z</time>
   </trkpt>
   <trkpt lat="53.4491290" lon="-6.1624190">
    <ele>13.1</ele>
    <time>2025-12-17T10:34:20Z</time>
   </trkpt>
   <trkpt lat="53.4491370" lon="-6.1625420">
    <ele>13.3</ele>
    <time>2025-12-17T10:34:26Z</time>
   </trkpt>
   <trkpt lat="53.4491380" lon="-6.1626930">
    <ele>13.6</ele>
    <time>2025-12-17T10:34:31Z</time>
   </trkpt>
   <trkpt lat="53.4491290" lon="-6.1628290">
    <ele>13.8</ele>
    <time>2025-12-17T10:34:36Z</time>
   </trkpt>
   <trkpt lat="53.4491000" lon="-6.1629490">
    <ele>13.9</ele>
    <time>2025-12-17T10:34:41Z</time>
   </trkpt>
   <trkpt lat="53.4490370" lon="-6.1630360">
    <ele>13.3</ele>
    <time>2025-12-17T10:34:47Z</time>
   </trkpt>
   <trkpt lat="53.4490020" lon="-6.1631710">
    <ele>13.0</ele>
    <time>2025-12-17T10:34:52Z</time>
   </trkpt>
   <trkpt lat="53.4489570" lon="-6.1632910">
    <ele>13.2</ele>
    <time>2025-12-17T10:34:57Z</time>
   </trkpt>
   <trkpt lat="53.4489240" lon="-6.1634150">
    <ele>13.1</ele>
    <time>2025-12-17T10:35:02Z</time>
   </trkpt>
   <trkpt lat="53.4488910" lon="-6.1635450">
    <ele>13.5</ele>
    <time>2025-12-17T10:35:08Z</time>
   </trkpt>
   <trkpt lat="53.4488640" lon="-6.1636610">
    <ele>13.3</ele>
    <time>2025-12-17T10:35:13Z</time>
   </trkpt>
   <trkpt lat="53.4488440" lon="-6.1637890">
    <ele>13.1</ele>
    <time>2025-12-17T10:35:18Z</time>
   </trkpt>
   <trkpt lat="53.4488220" lon="-6.1639150">
    <ele>12.9</ele>
    <time>2025-12-17T10:35:24Z</time>
   </trkpt>
   <trkpt lat="53.4488050" lon="-6.1640500">
    <ele>12.7</ele>
    <time>2025-12-17T10:35:29Z</time>
   </trkpt>
   <trkpt lat="53.4487830" lon="-6.1641780">
    <ele>12.7</ele>
    <time>2025-12-17T10:35:34Z</time>
   </trkpt>
   <trkpt lat="53.4487350" lon="-6.1642790">
    <ele>12.8</ele>
    <time>2025-12-17T10:35:39Z</time>
   </trkpt>
   <trkpt lat="53.4487020" lon="-6.1644010">
    <ele>12.9</ele>
    <time>2025-12-17T10:35:45Z</time>
   </trkpt>
   <trkpt lat="53.4486840" lon="-6.1645290">
    <ele>12.9</ele>
    <time>2025-12-17T10:35:50Z</time>
   </trkpt>
   <trkpt lat="53.4486740" lon="-6.1646760">
    <ele>13.0</ele>
    <time>2025-12-17T10:35:55Z</time>
   </trkpt>
   <trkpt lat="53.4486580" lon="-6.1648050">
    <ele>13.2</ele>
    <time>2025-12-17T10:36:00Z</time>
   </trkpt>
   <trkpt lat="53.4486390" lon="-6.1649260">
    <ele>13.4</ele>
    <time>2025-12-17T10:36:06Z</time>
   </trkpt>
   <trkpt lat="53.4486270" lon="-6.1650490">
    <ele>13.6</ele>
    <time>2025-12-17T10:36:11Z</time>
   </trkpt>
   <trkpt lat="53.4486100" lon="-6.1651810">
    <ele>13.9</ele>
    <time>2025-12-17T10:36:16Z</time>
   </trkpt>
   <trkpt lat="53.4485890" lon="-6.1653010">
    <ele>14.1</ele>
    <time>2025-12-17T10:36:21Z</time>
   </trkpt>
   <trkpt lat="53.4485590" lon="-6.1654270">
    <ele>14.3</ele>
    <time>2025-12-17T10:36:26Z</time>
   </trkpt>
   <trkpt lat="53.4485330" lon="-6.1655430">
    <ele>14.3</ele>
    <time>2025-12-17T10:36:32Z</time>
   </trkpt>
   <trkpt lat="53.4485170" lon="-6.1656710">
    <ele>14.6</ele>
    <time>2025-12-17T10:36:37Z</time>
   </trkpt>
   <trkpt lat="53.4485010" lon="-6.1658020">
    <ele>14.7</ele>
    <time>2025-12-17T10:36:42Z</time>
   </trkpt>
   <trkpt lat="53.4484820" lon="-6.1659340">
    <ele>14.8</ele>
    <time>2025-12-17T10:36:47Z</time>
   </trkpt>
   <trkpt lat="53.4484780" lon="-6.1660700">
    <ele>14.9</ele>
    <time>2025-12-17T10:36:53Z</time>
   </trkpt>
   <trkpt lat="53.4484480" lon="-6.1661780">
    <ele>14.9</ele>
    <time>2025-12-17T10:36:58Z</time>
   </trkpt>
   <trkpt lat="53.4484180" lon="-6.1663070">
    <ele>15.1</ele>
    <time>2025-12-17T10:37:03Z</time>
   </trkpt>
   <trkpt lat="53.4484020" lon="-6.1664370">
    <ele>15.2</ele>
    <time>2025-12-17T10:37:09Z</time>
   </trkpt>
   <trkpt lat="53.4483790" lon="-6.1665620">
    <ele>15.3</ele>
    <time>2025-12-17T10:37:14Z</time>
   </trkpt>
   <trkpt lat="53.4483610" lon="-6.1667000">
    <ele>15.5</ele>
    <time>2025-12-17T10:37:20Z</time>
   </trkpt>
   <trkpt lat="53.4483510" lon="-6.1668290">
    <ele>15.6</ele>
    <time>2025-12-17T10:37:25Z</time>
   </trkpt>
   <trkpt lat="53.4483250" lon="-6.1669800">
    <ele>15.6</ele>
    <time>2025-12-17T10:37:31Z</time>
   </trkpt>
   <trkpt lat="53.4483060" lon="-6.1671030">
    <ele>15.6</ele>
    <time>2025-12-17T10:37:36Z</time>
   </trkpt>
   <trkpt lat="53.4482720" lon="-6.1672160">
    <ele>15.6</ele>
    <time>2025-12-17T10:37:41Z</time>
   </trkpt>
   <trkpt lat="53.4482300" lon="-6.1673300">
    <ele>15.8</ele>
    <time>2025-12-17T10:37:47Z</time>
   </trkpt>
   <trkpt lat="53.4482100" lon="-6.1674570">
    <ele>16.0</ele>
    <time>2025-12-17T10:37:52Z</time>
   </trkpt>
   <trkpt lat="53.4482060" lon="-6.1675940">
    <ele>16.1</ele>
    <time>2025-12-17T10:37:57Z</time>
   </trkpt>
   <trkpt lat="53.4481910" lon="-6.1677190">
    <ele>16.4</ele>
    <time>2025-12-17T10:38:02Z</time>
   </trkpt>
   <trkpt lat="53.4481610" lon="-6.1678460">
    <ele>16.7</ele>
    <time>2025-12-17T10:38:08Z</time>
   </trkpt>
   <trkpt lat="53.4481450" lon="-6.1679610">
    <ele>17.1</ele>
    <time>2025-12-17T10:38:13Z</time>
   </trkpt>
   <trkpt lat="53.4481270" lon="-6.1680790">
    <ele>17.3</ele>
    <time>2025-12-17T10:38:18Z</time>
   </trkpt>
   <trkpt lat="53.4481060" lon="-6.1682200">
    <ele>17.2</ele>
    <time>2025-12-17T10:38:23Z</time>
   </trkpt>
   <trkpt lat="53.4480930" lon="-6.1683370">
    <ele>17.2</ele>
    <time>2025-12-17T10:38:28Z</time>
   </trkpt>
   <trkpt lat="53.4480590" lon="-6.1684660">
    <ele>17.5</ele>
    <time>2025-12-17T10:38:34Z</time>
   </trkpt>
   <trkpt lat="53.4480380" lon="-6.1685880">
    <ele>17.8</ele>
    <time>2025-12-17T10:38:39Z</time>
   </trkpt>
   <trkpt lat="53.4480240" lon="-6.1687110">
    <ele>17.8</ele>
    <time>2025-12-17T10:38:44Z</time>
   </trkpt>
   <trkpt lat="53.4480150" lon="-6.1688580">
    <ele>17.8</ele>
    <time>2025-12-17T10:38:50Z</time>
   </trkpt>
   <trkpt lat="53.4479920" lon="-6.1689840">
    <ele>17.7</ele>
    <time>2025-12-17T10:38:55Z</time>
   </trkpt>
   <trkpt lat="53.4479320" lon="-6.1690700">
    <ele>17.4</ele>
    <time>2025-12-17T10:39:00Z</time>
   </trkpt>
   <trkpt lat="53.4478660" lon="-6.1691030">
    <ele>17.1</ele>
    <time>2025-12-17T10:39:05Z</time>
   </trkpt>
   <trkpt lat="53.4477990" lon="-6.1691080">
    <ele>16.8</ele>
    <time>2025-12-17T10:39:10Z</time>
   </trkpt>
   <trkpt lat="53.4477220" lon="-6.1690830">
    <ele>16.7</ele>
    <time>2025-12-17T10:39:16Z</time>
   </trkpt>
   <trkpt lat="53.4476440" lon="-6.1690860">
    <ele>16.7</ele>
    <time>2025-12-17T10:39:21Z</time>
   </trkpt>
   <trkpt lat="53.4475640" lon="-6.1691190">
    <ele>16.8</ele>
    <time>2025-12-17T10:39:26Z</time>
   </trkpt>
   <trkpt lat="53.4474850" lon="-6.1691480">
    <ele>17.0</ele>
    <time>2025-12-17T10:39:31Z</time>
   </trkpt>
   <trkpt lat="53.4474640" lon="-6.1692560">
    <ele>17.1</ele>
    <time>2025-12-17T10:39:37Z</time>
   </trkpt>
   <trkpt lat="53.4474120" lon="-6.1692670">
    <ele>17.1</ele>
    <time>2025-12-17T10:39:50Z</time>
   </trkpt>
   <trkpt lat="53.4473020" lon="-6.1693560">
    <ele>17.1</ele>
    <time>2025-12-17T10:39:56Z</time>
   </trkpt>
   <trkpt lat="53.4472280" lon="-6.1694480">
    <ele>17.0</ele>
    <time>2025-12-17T10:40:01Z</time>
   </trkpt>
   <trkpt lat="53.4471540" lon="-6.1695360">
    <ele>17.1</ele>
    <time>2025-12-17T10:40:07Z</time>
   </trkpt>
   <trkpt lat="53.4470900" lon="-6.1696270">
    <ele>17.1</ele>
    <time>2025-12-17T10:40:12Z</time>
   </trkpt>
   <trkpt lat="53.4470370" lon="-6.1697310">
    <ele>17.1</ele>
    <time>2025-12-17T10:40:17Z</time>
   </trkpt>
   <trkpt lat="53.4469880" lon="-6.1698410">
    <ele>17.2</ele>
    <time>2025-12-17T10:40:22Z</time>
   </trkpt>
   <trkpt lat="53.4469460" lon="-6.1699450">
    <ele>17.3</ele>
    <time>2025-12-17T10:40:28Z</time>
   </trkpt>
   <trkpt lat="53.4469010" lon="-6.1700380">
    <ele>17.3</ele>
    <time>2025-12-17T10:40:33Z</time>
   </trkpt>
   <trkpt lat="53.4468760" lon="-6.1701640">
    <ele>17.1</ele>
    <time>2025-12-17T10:40:38Z</time>
   </trkpt>
   <trkpt lat="53.4469280" lon="-6.1703110">
    <ele>16.7</ele>
    <time>2025-12-17T10:40:43Z</time>
   </trkpt>
   <trkpt lat="53.4469680" lon="-6.1704260">
    <ele>16.5</ele>
    <time>2025-12-17T10:40:48Z</time>
   </trkpt>
   <trkpt lat="53.4469850" lon="-6.1705670">
    <ele>16.3</ele>
    <time>2025-12-17T10:40:54Z</time>
   </trkpt>
   <trkpt lat="53.4469840" lon="-6.1707030">
    <ele>16.1</ele>
    <time>2025-12-17T10:40:59Z</time>
   </trkpt>
   <trkpt lat="53.4469640" lon="-6.1708180">
    <ele>16.1</ele>
    <time>2025-12-17T10:41:04Z</time>
   </trkpt>
   <trkpt lat="53.4469510" lon="-6.1709390">
    <ele>16.2</ele>
    <time>2025-12-17T10:41:09Z</time>
   </trkpt>
   <trkpt lat="53.4469380" lon="-6.1710920">
    <ele>16.1</ele>
    <time>2025-12-17T10:41:15Z</time>
   </trkpt>
   <trkpt lat="53.4469370" lon="-6.1712280">
    <ele>16.0</ele>
    <time>2025-12-17T10:41:20Z</time>
   </trkpt>
   <trkpt lat="53.4469140" lon="-6.1713520">
    <ele>15.9</ele>
    <time>2025-12-17T10:41:26Z</time>
   </trkpt>
   <trkpt lat="53.4468660" lon="-6.1714310">
    <ele>16.0</ele>
    <time>2025-12-17T10:41:31Z</time>
   </trkpt>
   <trkpt lat="53.4468000" lon="-6.1714630">
    <ele>16.1</ele>
    <time>2025-12-17T10:41:36Z</time>
   </trkpt>
   <trkpt lat="53.4467460" lon="-6.1714930">
    <ele>15.9</ele>
    <time>2025-12-17T10:41:41Z</time>
   </trkpt>
   <trkpt lat="53.4466700" lon="-6.1715590">
    <ele>15.9</ele>
    <time>2025-12-17T10:41:46Z</time>
   </trkpt>
   <trkpt lat="53.4465740" lon="-6.1715970">
    <ele>15.9</ele>
    <time>2025-12-17T10:41:52Z</time>
   </trkpt>
   <trkpt lat="53.4465060" lon="-6.1716290">
    <ele>15.8</ele>
    <time>2025-12-17T10:41:57Z</time>
   </trkpt>
   <trkpt lat="53.4464360" lon="-6.1716870">
    <ele>15.5</ele>
    <time>2025-12-17T10:42:02Z</time>
   </trkpt>
   <trkpt lat="53.4463670" lon="-6.1717900">
    <ele>15.4</ele>
    <time>2025-12-17T10:42:08Z</time>
   </trkpt>
   <trkpt lat="53.4463230" lon="-6.1718860">
    <ele>15.4</ele>
    <time>2025-12-17T10:42:13Z</time>
   </trkpt>
   <trkpt lat="53.4462660" lon="-6.1719630">
    <ele>15.4</ele>
    <time>2025-12-17T10:42:18Z</time>
   </trkpt>
   <trkpt lat="53.4462100" lon="-6.1720390">
    <ele>15.4</ele>
    <time>2025-12-17T10:42:23Z</time>
   </trkpt>
   <trkpt lat="53.4461660" lon="-6.1721400">
    <ele>15.4</ele>
    <time>2025-12-17T10:42:28Z</time>
   </trkpt>
   <trkpt lat="53.4461150" lon="-6.1722380">
    <ele>15.4</ele>
    <time>2025-12-17T10:42:34Z</time>
   </trkpt>
   <trkpt lat="53.4460590" lon="-6.1723110">
    <ele>15.4</ele>
    <time>2025-12-17T10:42:39Z</time>
   </trkpt>
   <trkpt lat="53.4459980" lon="-6.1723520">
    <ele>15.4</ele>
    <time>2025-12-17T10:42:44Z</time>
   </trkpt>
   <trkpt lat="53.4459250" lon="-6.1724230">
    <ele>15.4</ele>
    <time>2025-12-17T10:42:50Z</time>
   </trkpt>
   <trkpt lat="53.4458490" lon="-6.1724950">
    <ele>15.4</ele>
    <time>2025-12-17T10:42:55Z</time>
   </trkpt>
   <trkpt lat="53.4457530" lon="-6.1724280">
    <ele>15.4</ele>
    <time>2025-12-17T10:43:00Z</time>
   </trkpt>
   <trkpt lat="53.4456820" lon="-6.1723810">
    <ele>15.5</ele>
    <time>2025-12-17T10:43:06Z</time>
   </trkpt>
   <trkpt lat="53.4456120" lon="-6.1723610">
    <ele>15.6</ele>
    <time>2025-12-17T10:43:11Z</time>
   </trkpt>
   <trkpt lat="53.4455490" lon="-6.1723500">
    <ele>15.6</ele>
    <time>2025-12-17T10:43:17Z</time>
   </trkpt>
   <trkpt lat="53.4455140" lon="-6.1722830">
    <ele>15.5</ele>
    <time>2025-12-17T10:43:22Z</time>
   </trkpt>
   <trkpt lat="53.4454740" lon="-6.1721740">
    <ele>15.4</ele>
    <time>2025-12-17T10:43:28Z</time>
   </trkpt>
   <trkpt lat="53.4454490" lon="-6.1720360">
    <ele>15.5</ele>
    <time>2025-12-17T10:43:33Z</time>
   </trkpt>
   <trkpt lat="53.4454100" lon="-6.1718920">
    <ele>15.6</ele>
    <time>2025-12-17T10:43:38Z</time>
   </trkpt>
   <trkpt lat="53.4453400" lon="-6.1717900">
    <ele>15.6</ele>
    <time>2025-12-17T10:43:44Z</time>
   </trkpt>
   <trkpt lat="53.4452550" lon="-6.1717340">
    <ele>15.6</ele>
    <time>2025-12-17T10:43:49Z</time>
   </trkpt>
   <trkpt lat="53.4451840" lon="-6.1716750">
    <ele>15.6</ele>
    <time>2025-12-17T10:43:54Z</time>
   </trkpt>
   <trkpt lat="53.4451110" lon="-6.1716770">
    <ele>15.6</ele>
    <time>2025-12-17T10:44:00Z</time>
   </trkpt>
   <trkpt lat="53.4450680" lon="-6.1718010">
    <ele>15.6</ele>
    <time>2025-12-17T10:44:05Z</time>
   </trkpt>
   <trkpt lat="53.4449990" lon="-6.1718910">
    <ele>15.6</ele>
    <time>2025-12-17T10:44:10Z</time>
   </trkpt>
   <trkpt lat="53.4449270" lon="-6.1719210">
    <ele>15.6</ele>
    <time>2025-12-17T10:44:15Z</time>
   </trkpt>
   <trkpt lat="53.4448300" lon="-6.1720010">
    <ele>15.6</ele>
    <time>2025-12-17T10:44:21Z</time>
   </trkpt>
   <trkpt lat="53.4447720" lon="-6.1720500">
    <ele>15.6</ele>
    <time>2025-12-17T10:44:26Z</time>
   </trkpt>
   <trkpt lat="53.4447160" lon="-6.1720940">
    <ele>15.6</ele>
    <time>2025-12-17T10:44:32Z</time>
   </trkpt>
   <trkpt lat="53.4446400" lon="-6.1721310">
    <ele>15.6</ele>
    <time>2025-12-17T10:44:37Z</time>
   </trkpt>
   <trkpt lat="53.4445590" lon="-6.1721730">
    <ele>15.6</ele>
    <time>2025-12-17T10:44:42Z</time>
   </trkpt>
   <trkpt lat="53.4444710" lon="-6.1721900">
    <ele>15.6</ele>
    <time>2025-12-17T10:44:48Z</time>
   </trkpt>
   <trkpt lat="53.4444030" lon="-6.1722400">
    <ele>15.6</ele>
    <time>2025-12-17T10:44:53Z</time>
   </trkpt>
   <trkpt lat="53.4443460" lon="-6.1723150">
    <ele>15.6</ele>
    <time>2025-12-17T10:44:58Z</time>
   </trkpt>
   <trkpt lat="53.4442680" lon="-6.1723550">
    <ele>15.6</ele>
    <time>2025-12-17T10:45:04Z</time>
   </trkpt>
   <trkpt lat="53.4441820" lon="-6.1723910">
    <ele>15.6</ele>
    <time>2025-12-17T10:45:10Z</time>
   </trkpt>
   <trkpt lat="53.4441070" lon="-6.1723990">
    <ele>15.8</ele>
    <time>2025-12-17T10:45:15Z</time>
   </trkpt>
   <trkpt lat="53.4440200" lon="-6.1724390">
    <ele>15.8</ele>
    <time>2025-12-17T10:45:20Z</time>
   </trkpt>
   <trkpt lat="53.4439520" lon="-6.1724600">
    <ele>15.7</ele>
    <time>2025-12-17T10:45:26Z</time>
   </trkpt>
   <trkpt lat="53.4438930" lon="-6.1724920">
    <ele>15.5</ele>
    <time>2025-12-17T10:45:31Z</time>
   </trkpt>
   <trkpt lat="53.4438250" lon="-6.1725220">
    <ele>15.5</ele>
    <time>2025-12-17T10:45:36Z</time>
   </trkpt>
   <trkpt lat="53.4437580" lon="-6.1725190">
    <ele>15.4</ele>
    <time>2025-12-17T10:45:41Z</time>
   </trkpt>
   <trkpt lat="53.4436700" lon="-6.1725420">
    <ele>15.4</ele>
    <time>2025-12-17T10:45:47Z</time>
   </trkpt>
   <trkpt lat="53.4435960" lon="-6.1725730">
    <ele>15.4</ele>
    <time>2025-12-17T10:45:52Z</time>
   </trkpt>
   <trkpt lat="53.4435180" lon="-6.1726180">
    <ele>15.6</ele>
    <time>2025-12-17T10:45:58Z</time>
   </trkpt>
   <trkpt lat="53.4434380" lon="-6.1726460">
    <ele>15.7</ele>
    <time>2025-12-17T10:46:03Z</time>
   </trkpt>
   <trkpt lat="53.4433590" lon="-6.1726760">
    <ele>15.6</ele>
    <time>2025-12-17T10:46:09Z</time>
   </trkpt>
   <trkpt lat="53.4432750" lon="-6.1726820">
    <ele>15.4</ele>
    <time>2025-12-17T10:46:14Z</time>
   </trkpt>
   <trkpt lat="53.4432020" lon="-6.1727060">
    <ele>15.1</ele>
    <time>2025-12-17T10:46:19Z</time>
   </trkpt>
   <trkpt lat="53.4431330" lon="-6.1727550">
    <ele>14.8</ele>
    <time>2025-12-17T10:46:25Z</time>
   </trkpt>
   <trkpt lat="53.4430600" lon="-6.1727640">
    <ele>14.7</ele>
    <time>2025-12-17T10:46:30Z</time>
   </trkpt>
   <trkpt lat="53.4429820" lon="-6.1727450">
    <ele>14.6</ele>
    <time>2025-12-17T10:46:35Z</time>
   </trkpt>
   <trkpt lat="53.4428980" lon="-6.1727700">
    <ele>14.5</ele>
    <time>2025-12-17T10:46:41Z</time>
   </trkpt>
   <trkpt lat="53.4428200" lon="-6.1728190">
    <ele>14.6</ele>
    <time>2025-12-17T10:46:46Z</time>
   </trkpt>
   <trkpt lat="53.4427490" lon="-6.1728450">
    <ele>14.8</ele>
    <time>2025-12-17T10:46:51Z</time>
   </trkpt>
   <trkpt lat="53.4426810" lon="-6.1728630">
    <ele>14.8</ele>
    <time>2025-12-17T10:46:57Z</time>
   </trkpt>
   <trkpt lat="53.4426030" lon="-6.1728580">
    <ele>14.7</ele>
    <time>2025-12-17T10:47:02Z</time>
   </trkpt>
   <trkpt lat="53.4425240" lon="-6.1728780">
    <ele>14.8</ele>
    <time>2025-12-17T10:47:08Z</time>
   </trkpt>
   <trkpt lat="53.4424460" lon="-6.1729250">
    <ele>14.9</ele>
    <time>2025-12-17T10:47:13Z</time>
   </trkpt>
   <trkpt lat="53.4423780" lon="-6.1729790">
    <ele>14.9</ele>
    <time>2025-12-17T10:47:19Z</time>
   </trkpt>
   <trkpt lat="53.4422990" lon="-6.1730060">
    <ele>14.8</ele>
    <time>2025-12-17T10:47:24Z</time>
   </trkpt>
   <trkpt lat="53.4422090" lon="-6.1730250">
    <ele>14.8</ele>
    <time>2025-12-17T10:47:29Z</time>
   </trkpt>
   <trkpt lat="53.4421530" lon="-6.1730950">
    <ele>14.7</ele>
    <time>2025-12-17T10:47:35Z</time>
   </trkpt>
   <trkpt lat="53.4420800" lon="-6.1730880">
    <ele>14.8</ele>
    <time>2025-12-17T10:47:40Z</time>
   </trkpt>
   <trkpt lat="53.4420320" lon="-6.1731430">
    <ele>14.9</ele>
    <time>2025-12-17T10:47:45Z</time>
   </trkpt>
   <trkpt lat="53.4419890" lon="-6.1732070">
    <ele>14.8</ele>
    <time>2025-12-17T10:47:50Z</time>
   </trkpt>
   <trkpt lat="53.4419190" lon="-6.1732510">
    <ele>14.8</ele>
    <time>2025-12-17T10:47:56Z</time>
   </trkpt>
   <trkpt lat="53.4418460" lon="-6.1732940">
    <ele>14.8</ele>
    <time>2025-12-17T10:48:01Z</time>
   </trkpt>
   <trkpt lat="53.4417660" lon="-6.1733110">
    <ele>14.7</ele>
    <time>2025-12-17T10:48:07Z</time>
   </trkpt>
   <trkpt lat="53.4416910" lon="-6.1733370">
    <ele>14.8</ele>
    <time>2025-12-17T10:48:12Z</time>
   </trkpt>
   <trkpt lat="53.4416210" lon="-6.1733640">
    <ele>15.0</ele>
    <time>2025-12-17T10:48:18Z</time>
   </trkpt>
   <trkpt lat="53.4415390" lon="-6.1734110">
    <ele>15.3</ele>
    <time>2025-12-17T10:48:23Z</time>
   </trkpt>
   <trkpt lat="53.4414540" lon="-6.1734720">
    <ele>16.0</ele>
    <time>2025-12-17T10:48:29Z</time>
   </trkpt>
   <trkpt lat="53.4414030" lon="-6.1735210">
    <ele>16.3</ele>
    <time>2025-12-17T10:48:34Z</time>
   </trkpt>
   <trkpt lat="53.4413210" lon="-6.1735400">
    <ele>16.5</ele>
    <time>2025-12-17T10:48:40Z</time>
   </trkpt>
   <trkpt lat="53.4412320" lon="-6.1735870">
    <ele>16.5</ele>
    <time>2025-12-17T10:48:46Z</time>
   </trkpt>
   <trkpt lat="53.4411740" lon="-6.1736250">
    <ele>16.5</ele>
    <time>2025-12-17T10:48:51Z</time>
   </trkpt>
   <trkpt lat="53.4411200" lon="-6.1737210">
    <ele>16.1</ele>
    <time>2025-12-17T10:48:56Z</time>
   </trkpt>
   <trkpt lat="53.4410570" lon="-6.1738060">
    <ele>16.2</ele>
    <time>2025-12-17T10:49:02Z</time>
   </trkpt>
   <trkpt lat="53.4410130" lon="-6.1739020">
    <ele>15.9</ele>
    <time>2025-12-17T10:49:07Z</time>
   </trkpt>
   <trkpt lat="53.4409690" lon="-6.1739950">
    <ele>15.8</ele>
    <time>2025-12-17T10:49:12Z</time>
   </trkpt>
   <trkpt lat="53.4409080" lon="-6.1740700">
    <ele>15.9</ele>
    <time>2025-12-17T10:49:18Z</time>
   </trkpt>
   <trkpt lat="53.4408210" lon="-6.1741160">
    <ele>15.8</ele>
    <time>2025-12-17T10:49:23Z</time>
   </trkpt>
   <trkpt lat="53.4407690" lon="-6.1741980">
    <ele>15.7</ele>
    <time>2025-12-17T10:49:28Z</time>
   </trkpt>
   <trkpt lat="53.4407280" lon="-6.1742780">
    <ele>15.5</ele>
    <time>2025-12-17T10:49:33Z</time>
   </trkpt>
   <trkpt lat="53.4406700" lon="-6.1743490">
    <ele>15.5</ele>
    <time>2025-12-17T10:49:38Z</time>
   </trkpt>
   <trkpt lat="53.4406170" lon="-6.1744420">
    <ele>15.6</ele>
    <time>2025-12-17T10:49:43Z</time>
   </trkpt>
   <trkpt lat="53.4405740" lon="-6.1745310">
    <ele>15.8</ele>
    <time>2025-12-17T10:49:49Z</time>
   </trkpt>
   <trkpt lat="53.4405110" lon="-6.1746190">
    <ele>15.8</ele>
    <time>2025-12-17T10:49:54Z</time>
   </trkpt>
   <trkpt lat="53.4404640" lon="-6.1747370">
    <ele>15.7</ele>
    <time>2025-12-17T10:49:59Z</time>
   </trkpt>
   <trkpt lat="53.4404230" lon="-6.1748410">
    <ele>15.0</ele>
    <time>2025-12-17T10:50:05Z</time>
   </trkpt>
   <trkpt lat="53.4404010" lon="-6.1749670">
    <ele>15.3</ele>
    <time>2025-12-17T10:50:10Z</time>
   </trkpt>
   <trkpt lat="53.4403740" lon="-6.1750870">
    <ele>15.3</ele>
    <time>2025-12-17T10:50:16Z</time>
   </trkpt>
   <trkpt lat="53.4403350" lon="-6.1751960">
    <ele>15.6</ele>
    <time>2025-12-17T10:50:21Z</time>
   </trkpt>
   <trkpt lat="53.4403160" lon="-6.1753130">
    <ele>15.3</ele>
    <time>2025-12-17T10:50:26Z</time>
   </trkpt>
   <trkpt lat="53.4402810" lon="-6.1754190">
    <ele>14.3</ele>
    <time>2025-12-17T10:50:32Z</time>
   </trkpt>
   <trkpt lat="53.4402450" lon="-6.1755060">
    <ele>14.4</ele>
    <time>2025-12-17T10:50:37Z</time>
   </trkpt>
   <trkpt lat="53.4401870" lon="-6.1754930">
    <ele>14.0</ele>
    <time>2025-12-17T10:50:42Z</time>
   </trkpt>
   <trkpt lat="53.4401280" lon="-6.1754220">
    <ele>13.0</ele>
    <time>2025-12-17T10:50:48Z</time>
   </trkpt>
   <trkpt lat="53.4400650" lon="-6.1754070">
    <ele>11.9</ele>
    <time>2025-12-17T10:50:53Z</time>
   </trkpt>
   <trkpt lat="53.4399840" lon="-6.1753300">
    <ele>11.3</ele>
    <time>2025-12-17T10:50:59Z</time>
   </trkpt>
   <trkpt lat="53.4399120" lon="-6.1752490">
    <ele>11.1</ele>
    <time>2025-12-17T10:51:04Z</time>
   </trkpt>
   <trkpt lat="53.4398820" lon="-6.1751280">
    <ele>10.9</ele>
    <time>2025-12-17T10:51:10Z</time>
   </trkpt>
   <trkpt lat="53.4398770" lon="-6.1750100">
    <ele>10.9</ele>
    <time>2025-12-17T10:51:15Z</time>
   </trkpt>
   <trkpt lat="53.4398440" lon="-6.1749330">
    <ele>10.9</ele>
    <time>2025-12-17T10:51:20Z</time>
   </trkpt>
   <trkpt lat="53.4398200" lon="-6.1748230">
    <ele>10.9</ele>
    <time>2025-12-17T10:51:25Z</time>
   </trkpt>
   <trkpt lat="53.4397630" lon="-6.1747300">
    <ele>10.9</ele>
    <time>2025-12-17T10:51:31Z</time>
   </trkpt>
   <trkpt lat="53.4397170" lon="-6.1746520">
    <ele>10.9</ele>
    <time>2025-12-17T10:51:36Z</time>
   </trkpt>
   <trkpt lat="53.4396660" lon="-6.1745320">
    <ele>11.0</ele>
    <time>2025-12-17T10:51:42Z</time>
   </trkpt>
   <trkpt lat="53.4396190" lon="-6.1744100">
    <ele>11.0</ele>
    <time>2025-12-17T10:51:47Z</time>
   </trkpt>
   <trkpt lat="53.4395670" lon="-6.1742790">
    <ele>10.9</ele>
    <time>2025-12-17T10:51:53Z</time>
   </trkpt>
   <trkpt lat="53.4395060" lon="-6.1741920">
    <ele>10.9</ele>
    <time>2025-12-17T10:51:58Z</time>
   </trkpt>
   <trkpt lat="53.4394760" lon="-6.1740740">
    <ele>10.9</ele>
    <time>2025-12-17T10:52:04Z</time>
   </trkpt>
   <trkpt lat="53.4394540" lon="-6.1739740">
    <ele>10.6</ele>
    <time>2025-12-17T10:52:09Z</time>
   </trkpt>
   <trkpt lat="53.4394190" lon="-6.1738880">
    <ele>10.7</ele>
    <time>2025-12-17T10:52:14Z</time>
   </trkpt>
   <trkpt lat="53.4393850" lon="-6.1737960">
    <ele>10.7</ele>
    <time>2025-12-17T10:52:20Z</time>
   </trkpt>
   <trkpt lat="53.4393580" lon="-6.1736960">
    <ele>10.7</ele>
    <time>2025-12-17T10:52:25Z</time>
   </trkpt>
   <trkpt lat="53.4393190" lon="-6.1735630">
    <ele>10.8</ele>
    <time>2025-12-17T10:52:31Z</time>
   </trkpt>
   <trkpt lat="53.4393080" lon="-6.1733950">
    <ele>11.1</ele>
    <time>2025-12-17T10:52:36Z</time>
   </trkpt>
   <trkpt lat="53.4392890" lon="-6.1732810">
    <ele>11.5</ele>
    <time>2025-12-17T10:52:41Z</time>
   </trkpt>
   <trkpt lat="53.4392870" lon="-6.1731790">
    <ele>11.4</ele>
    <time>2025-12-17T10:52:47Z</time>
   </trkpt>
   <trkpt lat="53.4392750" lon="-6.1730660">
    <ele>11.0</ele>
    <time>2025-12-17T10:52:52Z</time>
   </trkpt>
   <trkpt lat="53.4392670" lon="-6.1729510">
    <ele>10.9</ele>
    <time>2025-12-17T10:52:57Z</time>
   </trkpt>
   <trkpt lat="53.4392790" lon="-6.1728320">
    <ele>11.0</ele>
    <time>2025-12-17T10:53:03Z</time>
   </trkpt>
   <trkpt lat="53.4392610" lon="-6.1727260">
    <ele>11.2</ele>
    <time>2025-12-17T10:53:08Z</time>
   </trkpt>
   <trkpt lat="53.4392650" lon="-6.1726130">
    <ele>10.8</ele>
    <time>2025-12-17T10:53:13Z</time>
   </trkpt>
   <trkpt lat="53.4392530" lon="-6.1724780">
    <ele>10.3</ele>
    <time>2025-12-17T10:53:19Z</time>
   </trkpt>
   <trkpt lat="53.4392470" lon="-6.1723520">
    <ele>10.1</ele>
    <time>2025-12-17T10:53:24Z</time>
   </trkpt>
   <trkpt lat="53.4392230" lon="-6.1722160">
    <ele>10.4</ele>
    <time>2025-12-17T10:53:29Z</time>
   </trkpt>
   <trkpt lat="53.4392180" lon="-6.1720900">
    <ele>10.6</ele>
    <time>2025-12-17T10:53:35Z</time>
   </trkpt>
   <trkpt lat="53.4392040" lon="-6.1719640">
    <ele>10.8</ele>
    <time>2025-12-17T10:53:40Z</time>
   </trkpt>
   <trkpt lat="53.4392060" lon="-6.1718360">
    <ele>10.6</ele>
    <time>2025-12-17T10:53:46Z</time>
   </trkpt>
   <trkpt lat="53.4391710" lon="-6.1717180">
    <ele>10.6</ele>
    <time>2025-12-17T10:53:51Z</time>
   </trkpt>
   <trkpt lat="53.4391590" lon="-6.1716170">
    <ele>10.7</ele>
    <time>2025-12-17T10:53:56Z</time>
   </trkpt>
   <trkpt lat="53.4391590" lon="-6.1715040">
    <ele>10.9</ele>
    <time>2025-12-17T10:54:02Z</time>
   </trkpt>
   <trkpt lat="53.4391460" lon="-6.1713700">
    <ele>11.4</ele>
    <time>2025-12-17T10:54:07Z</time>
   </trkpt>
   <trkpt lat="53.4391180" lon="-6.1712620">
    <ele>11.3</ele>
    <time>2025-12-17T10:54:12Z</time>
   </trkpt>
   <trkpt lat="53.4390760" lon="-6.1711540">
    <ele>10.9</ele>
    <time>2025-12-17T10:54:18Z</time>
   </trkpt>
   <trkpt lat="53.4390710" lon="-6.1710440">
    <ele>11.0</ele>
    <time>2025-12-17T10:54:23Z</time>
   </trkpt>
   <trkpt lat="53.4390700" lon="-6.1709230">
    <ele>10.9</ele>
    <time>2025-12-17T10:54:29Z</time>
   </trkpt>
   <trkpt lat="53.4390850" lon="-6.1708120">
    <ele>11.3</ele>
    <time>2025-12-17T10:54:34Z</time>
   </trkpt>
   <trkpt lat="53.4390990" lon="-6.1706940">
    <ele>11.3</ele>
    <time>2025-12-17T10:54:39Z</time>
   </trkpt>
   <trkpt lat="53.4390940" lon="-6.1705610">
    <ele>10.6</ele>
    <time>2025-12-17T10:54:45Z</time>
   </trkpt>
   <trkpt lat="53.4390770" lon="-6.1704270">
    <ele>10.5</ele>
    <time>2025-12-17T10:54:50Z</time>
   </trkpt>
   <trkpt lat="53.4390450" lon="-6.1703130">
    <ele>10.8</ele>
    <time>2025-12-17T10:54:55Z</time>
   </trkpt>
   <trkpt lat="53.4390350" lon="-6.1701740">
    <ele>11.0</ele>
    <time>2025-12-17T10:55:01Z</time>
   </trkpt>
   <trkpt lat="53.4390200" lon="-6.1700610">
    <ele>11.4</ele>
    <time>2025-12-17T10:55:06Z</time>
   </trkpt>
   <trkpt lat="53.4390210" lon="-6.1699390">
    <ele>10.7</ele>
    <time>2025-12-17T10:55:12Z</time>
   </trkpt>
   <trkpt lat="53.4390420" lon="-6.1698340">
    <ele>10.3</ele>
    <time>2025-12-17T10:55:17Z</time>
   </trkpt>
   <trkpt lat="53.4390800" lon="-6.1697120">
    <ele>11.2</ele>
    <time>2025-12-17T10:55:22Z</time>
   </trkpt>
   <trkpt lat="53.4390970" lon="-6.1695880">
    <ele>11.9</ele>
    <time>2025-12-17T10:55:28Z</time>
   </trkpt>
   <trkpt lat="53.4391000" lon="-6.1694660">
    <ele>12.2</ele>
    <time>2025-12-17T10:55:33Z</time>
   </trkpt>
   <trkpt lat="53.4390920" lon="-6.1693230">
    <ele>12.3</ele>
    <time>2025-12-17T10:55:39Z</time>
   </trkpt>
   <trkpt lat="53.4390740" lon="-6.1692240">
    <ele>12.3</ele>
    <time>2025-12-17T10:55:44Z</time>
   </trkpt>
   <trkpt lat="53.4390940" lon="-6.1691170">
    <ele>12.3</ele>
    <time>2025-12-17T10:55:50Z</time>
   </trkpt>
   <trkpt lat="53.4391400" lon="-6.1689910">
    <ele>12.3</ele>
    <time>2025-12-17T10:55:55Z</time>
   </trkpt>
   <trkpt lat="53.4391950" lon="-6.1688700">
    <ele>13.4</ele>
    <time>2025-12-17T10:56:00Z</time>
   </trkpt>
   <trkpt lat="53.4392220" lon="-6.1687600">
    <ele>13.1</ele>
    <time>2025-12-17T10:56:06Z</time>
   </trkpt>
   <trkpt lat="53.4392350" lon="-6.1686350">
    <ele>12.6</ele>
    <time>2025-12-17T10:56:11Z</time>
   </trkpt>
   <trkpt lat="53.4392480" lon="-6.1685450">
    <ele>12.4</ele>
    <time>2025-12-17T10:56:16Z</time>
   </trkpt>
   <trkpt lat="53.4392690" lon="-6.1684260">
    <ele>12.4</ele>
    <time>2025-12-17T10:56:22Z</time>
   </trkpt>
   <trkpt lat="53.4392870" lon="-6.1683200">
    <ele>12.3</ele>
    <time>2025-12-17T10:56:27Z</time>
   </trkpt>
   <trkpt lat="53.4393060" lon="-6.1681910">
    <ele>12.2</ele>
    <time>2025-12-17T10:56:33Z</time>
   </trkpt>
   <trkpt lat="53.4393400" lon="-6.1680730">
    <ele>12.2</ele>
    <time>2025-12-17T10:56:39Z</time>
   </trkpt>
   <trkpt lat="53.4393800" lon="-6.1679660">
    <ele>12.3</ele>
    <time>2025-12-17T10:56:44Z</time>
   </trkpt>
   <trkpt lat="53.4393900" lon="-6.1678480">
    <ele>12.3</ele>
    <time>2025-12-17T10:56:50Z</time>
   </trkpt>
   <trkpt lat="53.4394050" lon="-6.1677490">
    <ele>12.3</ele>
    <time>2025-12-17T10:56:55Z</time>
   </trkpt>
   <trkpt lat="53.4394080" lon="-6.1676340">
    <ele>13.4</ele>
    <time>2025-12-17T10:57:00Z</time>
   </trkpt>
   <trkpt lat="53.4394330" lon="-6.1675190">
    <ele>12.8</ele>
    <time>2025-12-17T10:57:05Z</time>
   </trkpt>
   <trkpt lat="53.4394680" lon="-6.1674200">
    <ele>12.5</ele>
    <time>2025-12-17T10:57:11Z</time>
   </trkpt>
   <trkpt lat="53.4395050" lon="-6.1673070">
    <ele>12.4</ele>
    <time>2025-12-17T10:57:16Z</time>
   </trkpt>
   <trkpt lat="53.4395320" lon="-6.1671770">
    <ele>12.3</ele>
    <time>2025-12-17T10:57:21Z</time>
   </trkpt>
   <trkpt lat="53.4395550" lon="-6.1670530">
    <ele>12.2</ele>
    <time>2025-12-17T10:57:27Z</time>
   </trkpt>
   <trkpt lat="53.4395380" lon="-6.1669270">
    <ele>12.2</ele>
    <time>2025-12-17T10:57:32Z</time>
   </trkpt>
   <trkpt lat="53.4395660" lon="-6.1668020">
    <ele>12.2</ele>
    <time>2025-12-17T10:57:38Z</time>
   </trkpt>
   <trkpt lat="53.4396160" lon="-6.1666850">
    <ele>12.2</ele>
    <time>2025-12-17T10:57:43Z</time>
   </trkpt>
   <trkpt lat="53.4396490" lon="-6.1665970">
    <ele>12.3</ele>
    <time>2025-12-17T10:57:48Z</time>
   </trkpt>
   <trkpt lat="53.4396780" lon="-6.1665180">
    <ele>12.4</ele>
    <time>2025-12-17T10:57:54Z</time>
   </trkpt>
   <trkpt lat="53.4397500" lon="-6.1664700">
    <ele>12.4</ele>
    <time>2025-12-17T10:57:59Z</time>
   </trkpt>
   <trkpt lat="53.4398070" lon="-6.1663740">
    <ele>12.1</ele>
    <time>2025-12-17T10:58:04Z</time>
   </trkpt>
   <trkpt lat="53.4398410" lon="-6.1662440">
    <ele>12.0</ele>
    <time>2025-12-17T10:58:10Z</time>
   </trkpt>
   <trkpt lat="53.4398670" lon="-6.1661390">
    <ele>12.1</ele>
    <time>2025-12-17T10:58:15Z</time>
   </trkpt>
   <trkpt lat="53.4398830" lon="-6.1660120">
    <ele>12.3</ele>
    <time>2025-12-17T10:58:20Z</time>
   </trkpt>
   <trkpt lat="53.4399040" lon="-6.1658930">
    <ele>12.5</ele>
    <time>2025-12-17T10:58:26Z</time>
   </trkpt>
   <trkpt lat="53.4399230" lon="-6.1657710">
    <ele>12.3</ele>
    <time>2025-12-17T10:58:31Z</time>
   </trkpt>
   <trkpt lat="53.4399630" lon="-6.1656790">
    <ele>12.0</ele>
    <time>2025-12-17T10:58:37Z</time>
   </trkpt>
   <trkpt lat="53.4399970" lon="-6.1655850">
    <ele>12.0</ele>
    <time>2025-12-17T10:58:42Z</time>
   </trkpt>
   <trkpt lat="53.4400350" lon="-6.1654850">
    <ele>12.4</ele>
    <time>2025-12-17T10:58:47Z</time>
   </trkpt>
   <trkpt lat="53.4400800" lon="-6.1653840">
    <ele>12.7</ele>
    <time>2025-12-17T10:58:52Z</time>
   </trkpt>
   <trkpt lat="53.4401320" lon="-6.1652990">
    <ele>13.1</ele>
    <time>2025-12-17T10:58:58Z</time>
   </trkpt>
   <trkpt lat="53.4401680" lon="-6.1652050">
    <ele>12.9</ele>
    <time>2025-12-17T10:59:03Z</time>
   </trkpt>
   <trkpt lat="53.4402090" lon="-6.1651090">
    <ele>12.9</ele>
    <time>2025-12-17T10:59:08Z</time>
   </trkpt>
   <trkpt lat="53.4402530" lon="-6.1650130">
    <ele>13.2</ele>
    <time>2025-12-17T10:59:14Z</time>
   </trkpt>
   <trkpt lat="53.4402940" lon="-6.1649270">
    <ele>13.5</ele>
    <time>2025-12-17T10:59:19Z</time>
   </trkpt>
   <trkpt lat="53.4403400" lon="-6.1648980">
    <ele>13.6</ele>
    <time>2025-12-17T10:59:24Z</time>
   </trkpt>
   <trkpt lat="53.4403760" lon="-6.1648470">
    <ele>13.5</ele>
    <time>2025-12-17T10:59:29Z</time>
   </trkpt>
   <trkpt lat="53.4403990" lon="-6.1647100">
    <ele>13.1</ele>
    <time>2025-12-17T10:59:34Z</time>
   </trkpt>
   <trkpt lat="53.4404000" lon="-6.1645700">
    <ele>12.8</ele>
    <time>2025-12-17T10:59:39Z</time>
   </trkpt>
   <trkpt lat="53.4403760" lon="-6.1644560">
    <ele>13.0</ele>
    <time>2025-12-17T10:59:45Z</time>
   </trkpt>
   <trkpt lat="53.4403520" lon="-6.1643360">
    <ele>13.3</ele>
    <time>2025-12-17T10:59:50Z</time>
   </trkpt>
   <trkpt lat="53.4403260" lon="-6.1642040">
    <ele>13.4</ele>
    <time>2025-12-17T10:59:56Z</time>
   </trkpt>
   <trkpt lat="53.4403070" lon="-6.1640710">
    <ele>13.6</ele>
    <time>2025-12-17T11:00:01Z</time>
   </trkpt>
   <trkpt lat="53.4402880" lon="-6.1639610">
    <ele>13.5</ele>
    <time>2025-12-17T11:00:06Z</time>
   </trkpt>
   <trkpt lat="53.4402690" lon="-6.1638460">
    <ele>13.5</ele>
    <time>2025-12-17T11:00:12Z</time>
   </trkpt>
   <trkpt lat="53.4402310" lon="-6.1637390">
    <ele>13.5</ele>
    <time>2025-12-17T11:00:17Z</time>
   </trkpt>
   <trkpt lat="53.4402110" lon="-6.1636270">
    <ele>13.6</ele>
    <time>2025-12-17T11:00:22Z</time>
   </trkpt>
   <trkpt lat="53.4402070" lon="-6.1635400">
    <ele>13.7</ele>
    <time>2025-12-17T11:00:27Z</time>
   </trkpt>
   <trkpt lat="53.4402240" lon="-6.1634110">
    <ele>13.9</ele>
    <time>2025-12-17T11:00:33Z</time>
   </trkpt>
   <trkpt lat="53.4402440" lon="-6.1632960">
    <ele>13.9</ele>
    <time>2025-12-17T11:00:38Z</time>
   </trkpt>
   <trkpt lat="53.4402630" lon="-6.1631770">
    <ele>14.1</ele>
    <time>2025-12-17T11:00:44Z</time>
   </trkpt>
   <trkpt lat="53.4402990" lon="-6.1630560">
    <ele>14.2</ele>
    <time>2025-12-17T11:00:49Z</time>
   </trkpt>
   <trkpt lat="53.4403330" lon="-6.1629570">
    <ele>14.1</ele>
    <time>2025-12-17T11:00:55Z</time>
   </trkpt>
   <trkpt lat="53.4403700" lon="-6.1628420">
    <ele>14.1</ele>
    <time>2025-12-17T11:01:00Z</time>
   </trkpt>
   <trkpt lat="53.4404100" lon="-6.1627460">
    <ele>14.1</ele>
    <time>2025-12-17T11:01:05Z</time>
   </trkpt>
   <trkpt lat="53.4404620" lon="-6.1626410">
    <ele>14.3</ele>
    <time>2025-12-17T11:01:11Z</time>
   </trkpt>
   <trkpt lat="53.4405080" lon="-6.1625510">
    <ele>14.5</ele>
    <time>2025-12-17T11:01:16Z</time>
   </trkpt>
   <trkpt lat="53.4405540" lon="-6.1624540">
    <ele>14.6</ele>
    <time>2025-12-17T11:01:21Z</time>
   </trkpt>
   <trkpt lat="53.4405920" lon="-6.1623200">
    <ele>14.6</ele>
    <time>2025-12-17T11:01:27Z</time>
   </trkpt>
   <trkpt lat="53.4406090" lon="-6.1622250">
    <ele>14.7</ele>
    <time>2025-12-17T11:01:32Z</time>
   </trkpt>
   <trkpt lat="53.4406280" lon="-6.1621180">
    <ele>14.7</ele>
    <time>2025-12-17T11:01:37Z</time>
   </trkpt>
   <trkpt lat="53.4406470" lon="-6.1620070">
    <ele>14.9</ele>
    <time>2025-12-17T11:01:42Z</time>
   </trkpt>
   <trkpt lat="53.4406730" lon="-6.1618850">
    <ele>15.0</ele>
    <time>2025-12-17T11:01:48Z</time>
   </trkpt>
   <trkpt lat="53.4407070" lon="-6.1617870">
    <ele>14.9</ele>
    <time>2025-12-17T11:01:53Z</time>
   </trkpt>
   <trkpt lat="53.4407440" lon="-6.1616940">
    <ele>14.9</ele>
    <time>2025-12-17T11:01:58Z</time>
   </trkpt>
   <trkpt lat="53.4407770" lon="-6.1615890">
    <ele>14.7</ele>
    <time>2025-12-17T11:02:04Z</time>
   </trkpt>
   <trkpt lat="53.4408120" lon="-6.1614880">
    <ele>14.6</ele>
    <time>2025-12-17T11:02:09Z</time>
   </trkpt>
   <trkpt lat="53.4408570" lon="-6.1614020">
    <ele>14.5</ele>
    <time>2025-12-17T11:02:14Z</time>
   </trkpt>
   <trkpt lat="53.4409070" lon="-6.1613340">
    <ele>14.3</ele>
    <time>2025-12-17T11:02:19Z</time>
   </trkpt>
   <trkpt lat="53.4409550" lon="-6.1612180">
    <ele>14.6</ele>
    <time>2025-12-17T11:02:25Z</time>
   </trkpt>
   <trkpt lat="53.4409860" lon="-6.1611000">
    <ele>14.3</ele>
    <time>2025-12-17T11:02:30Z</time>
   </trkpt>
   <trkpt lat="53.4410140" lon="-6.1609970">
    <ele>14.1</ele>
    <time>2025-12-17T11:02:35Z</time>
   </trkpt>
   <trkpt lat="53.4410390" lon="-6.1608810">
    <ele>14.0</ele>
    <time>2025-12-17T11:02:41Z</time>
   </trkpt>
   <trkpt lat="53.4410670" lon="-6.1607650">
    <ele>14.2</ele>
    <time>2025-12-17T11:02:46Z</time>
   </trkpt>
   <trkpt lat="53.4411100" lon="-6.1606650">
    <ele>14.3</ele>
    <time>2025-12-17T11:02:52Z</time>
   </trkpt>
   <trkpt lat="53.4411630" lon="-6.1605990">
    <ele>14.8</ele>
    <time>2025-12-17T11:02:57Z</time>
   </trkpt>
   <trkpt lat="53.4412340" lon="-6.1605370">
    <ele>14.7</ele>
    <time>2025-12-17T11:03:03Z</time>
   </trkpt>
   <trkpt lat="53.4412860" lon="-6.1604630">
    <ele>14.7</ele>
    <time>2025-12-17T11:03:08Z</time>
   </trkpt>
   <trkpt lat="53.4413220" lon="-6.1603390">
    <ele>15.2</ele>
    <time>2025-12-17T11:03:14Z</time>
   </trkpt>
   <trkpt lat="53.4413670" lon="-6.1602220">
    <ele>15.6</ele>
    <time>2025-12-17T11:03:19Z</time>
   </trkpt>
   <trkpt lat="53.4414130" lon="-6.1601420">
    <ele>16.4</ele>
    <time>2025-12-17T11:03:25Z</time>
   </trkpt>
   <trkpt lat="53.4414530" lon="-6.1600520">
    <ele>16.7</ele>
    <time>2025-12-17T11:03:30Z</time>
   </trkpt>
   <trkpt lat="53.4414780" lon="-6.1599410">
    <ele>16.9</ele>
    <time>2025-12-17T11:03:35Z</time>
   </trkpt>
   <trkpt lat="53.4415270" lon="-6.1598580">
    <ele>17.0</ele>
    <time>2025-12-17T11:03:41Z</time>
   </trkpt>
   <trkpt lat="53.4415570" lon="-6.1597420">
    <ele>17.1</ele>
    <time>2025-12-17T11:03:46Z</time>
   </trkpt>
   <trkpt lat="53.4416020" lon="-6.1596340">
    <ele>17.2</ele>
    <time>2025-12-17T11:03:52Z</time>
   </trkpt>
   <trkpt lat="53.4416540" lon="-6.1595520">
    <ele>17.5</ele>
    <time>2025-12-17T11:03:57Z</time>
   </trkpt>
   <trkpt lat="53.4417000" lon="-6.1594450">
    <ele>17.6</ele>
    <time>2025-12-17T11:04:03Z</time>
   </trkpt>
   <trkpt lat="53.4417510" lon="-6.1593400">
    <ele>17.5</ele>
    <time>2025-12-17T11:04:08Z</time>
   </trkpt>
   <trkpt lat="53.4417990" lon="-6.1592170">
    <ele>17.6</ele>
    <time>2025-12-17T11:04:14Z</time>
   </trkpt>
   <trkpt lat="53.4418450" lon="-6.1591210">
    <ele>17.5</ele>
    <time>2025-12-17T11:04:19Z</time>
   </trkpt>
   <trkpt lat="53.4418860" lon="-6.1590270">
    <ele>17.9</ele>
    <time>2025-12-17T11:04:24Z</time>
   </trkpt>
   <trkpt lat="53.4419260" lon="-6.1589320">
    <ele>18.2</ele>
    <time>2025-12-17T11:04:29Z</time>
   </trkpt>
   <trkpt lat="53.4419650" lon="-6.1588250">
    <ele>18.3</ele>
    <time>2025-12-17T11:04:35Z</time>
   </trkpt>
   <trkpt lat="53.4420100" lon="-6.1587250">
    <ele>18.6</ele>
    <time>2025-12-17T11:04:40Z</time>
   </trkpt>
   <trkpt lat="53.4420580" lon="-6.1586360">
    <ele>18.7</ele>
    <time>2025-12-17T11:04:46Z</time>
   </trkpt>
   <trkpt lat="53.4421110" lon="-6.1585430">
    <ele>19.0</ele>
    <time>2025-12-17T11:04:51Z</time>
   </trkpt>
   <trkpt lat="53.4421620" lon="-6.1584590">
    <ele>19.1</ele>
    <time>2025-12-17T11:04:56Z</time>
   </trkpt>
   <trkpt lat="53.4422110" lon="-6.1583620">
    <ele>19.0</ele>
    <time>2025-12-17T11:05:02Z</time>
   </trkpt>
   <trkpt lat="53.4422530" lon="-6.1582780">
    <ele>19.1</ele>
    <time>2025-12-17T11:05:07Z</time>
   </trkpt>
   <trkpt lat="53.4422810" lon="-6.1581830">
    <ele>19.1</ele>
    <time>2025-12-17T11:05:13Z</time>
   </trkpt>
   <trkpt lat="53.4423180" lon="-6.1580960">
    <ele>19.4</ele>
    <time>2025-12-17T11:05:18Z</time>
   </trkpt>
   <trkpt lat="53.4423810" lon="-6.1580580">
    <ele>19.9</ele>
    <time>2025-12-17T11:05:24Z</time>
   </trkpt>
   <trkpt lat="53.4424750" lon="-6.1580690">
    <ele>20.1</ele>
    <time>2025-12-17T11:05:29Z</time>
   </trkpt>
   <trkpt lat="53.4425490" lon="-6.1580380">
    <ele>20.3</ele>
    <time>2025-12-17T11:05:34Z</time>
   </trkpt>
   <trkpt lat="53.4426130" lon="-6.1579460">
    <ele>20.4</ele>
    <time>2025-12-17T11:05:40Z</time>
   </trkpt>
   <trkpt lat="53.4426940" lon="-6.1579370">
    <ele>20.5</ele>
    <time>2025-12-17T11:05:45Z</time>
   </trkpt>
   <trkpt lat="53.4427680" lon="-6.1578710">
    <ele>21.8</ele>
    <time>2025-12-17T11:05:51Z</time>
   </trkpt>
   <trkpt lat="53.4428330" lon="-6.1577530">
    <ele>22.3</ele>
    <time>2025-12-17T11:05:56Z</time>
   </trkpt>
   <trkpt lat="53.4428940" lon="-6.1576900">
    <ele>22.5</ele>
    <time>2025-12-17T11:06:01Z</time>
   </trkpt>
   <trkpt lat="53.4429480" lon="-6.1576420">
    <ele>22.6</ele>
    <time>2025-12-17T11:06:07Z</time>
   </trkpt>
   <trkpt lat="53.4430070" lon="-6.1576040">
    <ele>22.6</ele>
    <time>2025-12-17T11:06:12Z</time>
   </trkpt>
   <trkpt lat="53.4430810" lon="-6.1576390">
    <ele>22.7</ele>
    <time>2025-12-17T11:06:18Z</time>
   </trkpt>
   <trkpt lat="53.4431550" lon="-6.1577100">
    <ele>22.7</ele>
    <time>2025-12-17T11:06:24Z</time>
   </trkpt>
   <trkpt lat="53.4432350" lon="-6.1577840">
    <ele>22.6</ele>
    <time>2025-12-17T11:06:29Z</time>
   </trkpt>
   <trkpt lat="53.4433040" lon="-6.1578210">
    <ele>22.7</ele>
    <time>2025-12-17T11:06:34Z</time>
   </trkpt>
   <trkpt lat="53.4433700" lon="-6.1578290">
    <ele>22.4</ele>
    <time>2025-12-17T11:06:40Z</time>
   </trkpt>
   <trkpt lat="53.4434350" lon="-6.1578120">
    <ele>22.4</ele>
    <time>2025-12-17T11:06:45Z</time>
   </trkpt>
   <trkpt lat="53.4435120" lon="-6.1577960">
    <ele>22.6</ele>
    <time>2025-12-17T11:06:50Z</time>
   </trkpt>
   <trkpt lat="53.4436030" lon="-6.1578420">
    <ele>23.0</ele>
    <time>2025-12-17T11:06:56Z</time>
   </trkpt>
   <trkpt lat="53.4436640" lon="-6.1579300">
    <ele>23.5</ele>
    <time>2025-12-17T11:07:01Z</time>
   </trkpt>
   <trkpt lat="53.4437190" lon="-6.1580020">
    <ele>23.6</ele>
    <time>2025-12-17T11:07:07Z</time>
   </trkpt>
   <trkpt lat="53.4437810" lon="-6.1580470">
    <ele>23.3</ele>
    <time>2025-12-17T11:07:12Z</time>
   </trkpt>
   <trkpt lat="53.4438710" lon="-6.1580810">
    <ele>23.7</ele>
    <time>2025-12-17T11:07:17Z</time>
   </trkpt>
   <trkpt lat="53.4439430" lon="-6.1581220">
    <ele>23.7</ele>
    <time>2025-12-17T11:07:23Z</time>
   </trkpt>
   <trkpt lat="53.4440070" lon="-6.1581510">
    <ele>23.7</ele>
    <time>2025-12-17T11:07:28Z</time>
   </trkpt>
   <trkpt lat="53.4440770" lon="-6.1581700">
    <ele>23.7</ele>
    <time>2025-12-17T11:07:33Z</time>
   </trkpt>
   <trkpt lat="53.4441680" lon="-6.1581290">
    <ele>23.5</ele>
    <time>2025-12-17T11:07:39Z</time>
   </trkpt>
   <trkpt lat="53.4442460" lon="-6.1580070">
    <ele>23.6</ele>
    <time>2025-12-17T11:07:44Z</time>
   </trkpt>
   <trkpt lat="53.4443110" lon="-6.1578870">
    <ele>23.9</ele>
    <time>2025-12-17T11:07:50Z</time>
   </trkpt>
   <trkpt lat="53.4443700" lon="-6.1578040">
    <ele>23.9</ele>
    <time>2025-12-17T11:07:55Z</time>
   </trkpt>
   <trkpt lat="53.4444110" lon="-6.1577450">
    <ele>23.8</ele>
    <time>2025-12-17T11:08:00Z</time>
   </trkpt>
   <trkpt lat="53.4444560" lon="-6.1577600">
    <ele>23.8</ele>
    <time>2025-12-17T11:08:06Z</time>
   </trkpt>
   <trkpt lat="53.4445070" lon="-6.1577820">
    <ele>23.6</ele>
    <time>2025-12-17T11:08:12Z</time>
   </trkpt>
   <trkpt lat="53.4446160" lon="-6.1578350">
    <ele>23.9</ele>
    <time>2025-12-17T11:08:17Z</time>
   </trkpt>
   <trkpt lat="53.4447080" lon="-6.1578860">
    <ele>24.1</ele>
    <time>2025-12-17T11:08:23Z</time>
   </trkpt>
   <trkpt lat="53.4447870" lon="-6.1579090">
    <ele>24.0</ele>
    <time>2025-12-17T11:08:28Z</time>
   </trkpt>
   <trkpt lat="53.4448620" lon="-6.1579290">
    <ele>24.0</ele>
    <time>2025-12-17T11:08:34Z</time>
   </trkpt>
   <trkpt lat="53.4449290" lon="-6.1579470">
    <ele>23.8</ele>
    <time>2025-12-17T11:08:39Z</time>
   </trkpt>
   <trkpt lat="53.4450150" lon="-6.1579360">
    <ele>23.9</ele>
    <time>2025-12-17T11:08:44Z</time>
   </trkpt>
   <trkpt lat="53.4450990" lon="-6.1579990">
    <ele>24.0</ele>
    <time>2025-12-17T11:08:50Z</time>
   </trkpt>
   <trkpt lat="53.4451740" lon="-6.1580420">
    <ele>24.2</ele>
    <time>2025-12-17T11:08:55Z</time>
   </trkpt>
   <trkpt lat="53.4452340" lon="-6.1580890">
    <ele>24.0</ele>
    <time>2025-12-17T11:09:00Z</time>
   </trkpt>
   <trkpt lat="53.4453120" lon="-6.1580500">
    <ele>23.8</ele>
    <time>2025-12-17T11:09:06Z</time>
   </trkpt>
   <trkpt lat="53.4453930" lon="-6.1580380">
    <ele>23.5</ele>
    <time>2025-12-17T11:09:11Z</time>
   </trkpt>
   <trkpt lat="53.4454630" lon="-6.1580440">
    <ele>23.6</ele>
    <time>2025-12-17T11:09:16Z</time>
   </trkpt>
   <trkpt lat="53.4455100" lon="-6.1580700">
    <ele>23.9</ele>
    <time>2025-12-17T11:09:24Z</time>
   </trkpt>
   <trkpt lat="53.4456030" lon="-6.1581180">
    <ele>23.6</ele>
    <time>2025-12-17T11:09:29Z</time>
   </trkpt>
   <trkpt lat="53.4457030" lon="-6.1581350">
    <ele>23.4</ele>
    <time>2025-12-17T11:09:34Z</time>
   </trkpt>
   <trkpt lat="53.4457930" lon="-6.1581700">
    <ele>23.0</ele>
    <time>2025-12-17T11:09:40Z</time>
   </trkpt>
   <trkpt lat="53.4458590" lon="-6.1581750">
    <ele>23.0</ele>
    <time>2025-12-17T11:09:45Z</time>
   </trkpt>
   <trkpt lat="53.4459540" lon="-6.1581480">
    <ele>23.1</ele>
    <time>2025-12-17T11:09:51Z</time>
   </trkpt>
   <trkpt lat="53.4460390" lon="-6.1581560">
    <ele>23.2</ele>
    <time>2025-12-17T11:09:56Z</time>
   </trkpt>
   <trkpt lat="53.4461090" lon="-6.1581720">
    <ele>23.2</ele>
    <time>2025-12-17T11:10:02Z</time>
   </trkpt>
   <trkpt lat="53.4461690" lon="-6.1581830">
    <ele>22.6</ele>
    <time>2025-12-17T11:10:07Z</time>
   </trkpt>
   <trkpt lat="53.4462290" lon="-6.1581870">
    <ele>22.8</ele>
    <time>2025-12-17T11:10:12Z</time>
   </trkpt>
   <trkpt lat="53.4463150" lon="-6.1581960">
    <ele>23.1</ele>
    <time>2025-12-17T11:10:18Z</time>
   </trkpt>
   <trkpt lat="53.4464000" lon="-6.1582170">
    <ele>22.9</ele>
    <time>2025-12-17T11:10:23Z</time>
   </trkpt>
   <trkpt lat="53.4464600" lon="-6.1582850">
    <ele>22.5</ele>
    <time>2025-12-17T11:10:28Z</time>
   </trkpt>
   <trkpt lat="53.4464880" lon="-6.1583900">
    <ele>22.3</ele>
    <time>2025-12-17T11:10:34Z</time>
   </trkpt>
   <trkpt lat="53.4465460" lon="-6.1584510">
    <ele>22.1</ele>
    <time>2025-12-17T11:10:39Z</time>
   </trkpt>
   <trkpt lat="53.4466080" lon="-6.1585290">
    <ele>21.9</ele>
    <time>2025-12-17T11:10:45Z</time>
   </trkpt>
   <trkpt lat="53.4466800" lon="-6.1585650">
    <ele>21.8</ele>
    <time>2025-12-17T11:10:50Z</time>
   </trkpt>
   <trkpt lat="53.4467620" lon="-6.1585800">
    <ele>21.5</ele>
    <time>2025-12-17T11:10:55Z</time>
   </trkpt>
   <trkpt lat="53.4468390" lon="-6.1586080">
    <ele>21.9</ele>
    <time>2025-12-17T11:11:01Z</time>
   </trkpt>
   <trkpt lat="53.4469150" lon="-6.1586350">
    <ele>21.0</ele>
    <time>2025-12-17T11:11:07Z</time>
   </trkpt>
   <trkpt lat="53.4470000" lon="-6.1586560">
    <ele>20.6</ele>
    <time>2025-12-17T11:11:12Z</time>
   </trkpt>
   <trkpt lat="53.4470300" lon="-6.1587220">
    <ele>20.5</ele>
    <time>2025-12-17T11:11:17Z</time>
   </trkpt>
   <trkpt lat="53.4470800" lon="-6.1587860">
    <ele>20.0</ele>
    <time>2025-12-17T11:11:23Z</time>
   </trkpt>
   <trkpt lat="53.4471430" lon="-6.1588180">
    <ele>19.4</ele>
    <time>2025-12-17T11:11:28Z</time>
   </trkpt>
   <trkpt lat="53.4472140" lon="-6.1588670">
    <ele>18.4</ele>
    <time>2025-12-17T11:11:34Z</time>
   </trkpt>
   <trkpt lat="53.4473070" lon="-6.1588290">
    <ele>18.5</ele>
    <time>2025-12-17T11:11:39Z</time>
   </trkpt>
   <trkpt lat="53.4473870" lon="-6.1588300">
    <ele>18.2</ele>
    <time>2025-12-17T11:11:45Z</time>
   </trkpt>
   <trkpt lat="53.4474430" lon="-6.1587820">
    <ele>18.0</ele>
    <time>2025-12-17T11:11:50Z</time>
   </trkpt>
   <trkpt lat="53.4475180" lon="-6.1587800">
    <ele>17.9</ele>
    <time>2025-12-17T11:11:56Z</time>
   </trkpt>
   <trkpt lat="53.4475910" lon="-6.1587520">
    <ele>17.8</ele>
    <time>2025-12-17T11:12:01Z</time>
   </trkpt>
   <trkpt lat="53.4476790" lon="-6.1587520">
    <ele>17.4</ele>
    <time>2025-12-17T11:12:06Z</time>
   </trkpt>
   <trkpt lat="53.4477580" lon="-6.1587630">
    <ele>17.4</ele>
    <time>2025-12-17T11:12:12Z</time>
   </trkpt>
   <trkpt lat="53.4478180" lon="-6.1587280">
    <ele>17.9</ele>
    <time>2025-12-17T11:12:17Z</time>
   </trkpt>
   <trkpt lat="53.4478290" lon="-6.1588110">
    <ele>17.7</ele>
    <time>2025-12-17T11:12:32Z</time>
   </trkpt>
   <trkpt lat="53.4478820" lon="-6.1588240">
    <ele>17.6</ele>
    <time>2025-12-17T11:13:00Z</time>
   </trkpt>
   <trkpt lat="53.4479280" lon="-6.1588400">
    <ele>17.8</ele>
    <time>2025-12-17T11:13:22Z</time>
   </trkpt>
   <trkpt lat="53.4479630" lon="-6.1587870">
    <ele>18.2</ele>
    <time>2025-12-17T11:14:39Z</time>
   </trkpt>
   <trkpt lat="53.4480110" lon="-6.1587640">
    <ele>18.3</ele>
    <time>2025-12-17T11:14:47Z</time>
   </trkpt>
   <trkpt lat="53.4480780" lon="-6.1587280">
    <ele>18.3</ele>
    <time>2025-12-17T11:14:52Z</time>
   </trkpt>
   <trkpt lat="53.4481220" lon="-6.1586820">
    <ele>18.3</ele>
    <time>2025-12-17T11:14:57Z</time>
   </trkpt>
   <trkpt lat="53.4481820" lon="-6.1586800">
    <ele>18.3</ele>
    <time>2025-12-17T11:15:03Z</time>
   </trkpt>
   <trkpt lat="53.4482390" lon="-6.1587250">
    <ele>18.3</ele>
    <time>2025-12-17T11:15:08Z</time>
   </trkpt>
   <trkpt lat="53.4483020" lon="-6.1587090">
    <ele>18.3</ele>
    <time>2025-12-17T11:15:14Z</time>
   </trkpt>
   <trkpt lat="53.4483610" lon="-6.1587450">
    <ele>18.3</ele>
    <time>2025-12-17T11:15:19Z</time>
   </trkpt>
   <trkpt lat="53.4484170" lon="-6.1587100">
    <ele>18.3</ele>
    <time>2025-12-17T11:15:30Z</time>
   </trkpt>
   <trkpt lat="53.4484880" lon="-6.1586860">
    <ele>18.3</ele>
    <time>2025-12-17T11:15:35Z</time>
   </trkpt>
   <trkpt lat="53.4485330" lon="-6.1586900">
    <ele>18.3</ele>
    <time>2025-12-17T11:15:41Z</time>
   </trkpt>
   <trkpt lat="53.4485810" lon="-6.1586790">
    <ele>18.3</ele>
    <time>2025-12-17T11:15:46Z</time>
   </trkpt>
   <trkpt lat="53.4486300" lon="-6.1586870">
    <ele>18.3</ele>
    <time>2025-12-17T11:15:51Z</time>
   </trkpt>
   <trkpt lat="53.4486960" lon="-6.1586880">
    <ele>18.3</ele>
    <time>2025-12-17T11:15:56Z</time>
   </trkpt>
   <trkpt lat="53.4487740" lon="-6.1586780">
    <ele>18.1</ele>
    <time>2025-12-17T11:16:01Z</time>
   </trkpt>
   <trkpt lat="53.4488520" lon="-6.1586710">
    <ele>18.2</ele>
    <time>2025-12-17T11:16:07Z</time>
   </trkpt>
   <trkpt lat="53.4489100" lon="-6.1586710">
    <ele>18.3</ele>
    <time>2025-12-17T11:16:12Z</time>
   </trkpt>
   <trkpt lat="53.4489630" lon="-6.1586620">
    <ele>18.3</ele>
    <time>2025-12-17T11:16:17Z</time>
   </trkpt>
   <trkpt lat="53.4490300" lon="-6.1586480">
    <ele>18.3</ele>
    <time>2025-12-17T11:16:22Z</time>
   </trkpt>
   <trkpt lat="53.4491060" lon="-6.1586470">
    <ele>18.3</ele>
    <time>2025-12-17T11:16:27Z</time>
   </trkpt>
   <trkpt lat="53.4491620" lon="-6.1586680">
    <ele>18.3</ele>
    <time>2025-12-17T11:16:33Z</time>
   </trkpt>
   <trkpt lat="53.4492030" lon="-6.1586990">
    <ele>18.3</ele>
    <time>2025-12-17T11:16:57Z</time>
   </trkpt>
   <trkpt lat="53.4492740" lon="-6.1586620">
    <ele>18.3</ele>
    <time>2025-12-17T11:17:02Z</time>
   </trkpt>
   <trkpt lat="53.4493600" lon="-6.1586460">
    <ele>18.4</ele>
    <time>2025-12-17T11:17:08Z</time>
   </trkpt>
   <trkpt lat="53.4494410" lon="-6.1586370">
    <ele>18.4</ele>
    <time>2025-12-17T11:17:13Z</time>
   </trkpt>
   <trkpt lat="53.4495190" lon="-6.1586250">
    <ele>18.3</ele>
    <time>2025-12-17T11:17:18Z</time>
   </trkpt>
   <trkpt lat="53.4495870" lon="-6.1586220">
    <ele>17.5</ele>
    <time>2025-12-17T11:17:23Z</time>
   </trkpt>
   <trkpt lat="53.4496520" lon="-6.1586210">
    <ele>17.0</ele>
    <time>2025-12-17T11:17:28Z</time>
   </trkpt>
   <trkpt lat="53.4497310" lon="-6.1586160">
    <ele>16.9</ele>
    <time>2025-12-17T11:17:33Z</time>
   </trkpt>
   <trkpt lat="53.4498020" lon="-6.1586280">
    <ele>17.5</ele>
    <time>2025-12-17T11:17:39Z</time>
   </trkpt>
   <trkpt lat="53.4498680" lon="-6.1586230">
    <ele>17.8</ele>
    <time>2025-12-17T11:17:44Z</time>
   </trkpt>
   <trkpt lat="53.4499320" lon="-6.1586090">
    <ele>17.4</ele>
    <time>2025-12-17T11:17:49Z</time>
   </trkpt>
   <trkpt lat="53.4499890" lon="-6.1585620">
    <ele>16.8</ele>
    <time>2025-12-17T11:17:54Z</time>
   </trkpt>
   <trkpt lat="53.4500280" lon="-6.1584420">
    <ele>16.3</ele>
    <time>2025-12-17T11:18:00Z</time>
   </trkpt>
   <trkpt lat="53.4500680" lon="-6.1584870">
    <ele>16.3</ele>
    <time>2025-12-17T11:18:20Z</time>
   </trkpt>
   <trkpt lat="53.4500230" lon="-6.1586140">
    <ele>16.1</ele>
    <time>2025-12-17T11:18:25Z</time>
   </trkpt>
   <trkpt lat="53.4499940" lon="-6.1587210">
    <ele>16.2</ele>
    <time>2025-12-17T11:18:30Z</time>
   </trkpt>
   <trkpt lat="53.4499860" lon="-6.1588310">
    <ele>15.6</ele>
    <time>2025-12-17T11:18:35Z</time>
   </trkpt>
   <trkpt lat="53.4499930" lon="-6.1589460">
    <ele>15.1</ele>
    <time>2025-12-17T11:18:40Z</time>
   </trkpt>
   <trkpt lat="53.4499770" lon="-6.1590540">
    <ele>14.4</ele>
    <time>2025-12-17T11:18:46Z</time>
   </trkpt>
   <trkpt lat="53.4500250" lon="-6.1590950">
    <ele>14.1</ele>
    <time>2025-12-17T11:18:51Z</time>
   </trkpt>
   <trkpt lat="53.4500720" lon="-6.1591060">
    <ele>13.9</ele>
    <time>2025-12-17T11:19:04Z</time>
   </trkpt>
   <trkpt lat="53.4501590" lon="-6.1591180">
    <ele>13.7</ele>
    <time>2025-12-17T11:19:09Z</time>
   </trkpt>
   <trkpt lat="53.4502470" lon="-6.1591010">
    <ele>13.6</ele>
    <time>2025-12-17T11:19:15Z</time>
   </trkpt>
   <trkpt lat="53.4503150" lon="-6.1590120">
    <ele>13.5</ele>
    <time>2025-12-17T11:19:20Z</time>
   </trkpt>
   <trkpt lat="53.4503370" lon="-6.1589320">
    <ele>13.5</ele>
    <time>2025-12-17T11:19:25Z</time>
   </trkpt>
   <trkpt lat="53.4503730" lon="-6.1588300">
    <ele>13.3</ele>
    <time>2025-12-17T11:19:30Z</time>
   </trkpt>
   <trkpt lat="53.4503990" lon="-6.1587300">
    <ele>12.5</ele>
    <time>2025-12-17T11:19:36Z</time>
   </trkpt>
   <trkpt lat="53.4504570" lon="-6.1587010">
    <ele>12.1</ele>
    <time>2025-12-17T11:19:41Z</time>
   </trkpt>
   <trkpt lat="53.4505180" lon="-6.1586800">
    <ele>11.5</ele>
    <time>2025-12-17T11:19:46Z</time>
   </trkpt>
   <trkpt lat="53.4505810" lon="-6.1587180">
    <ele>11.1</ele>
    <time>2025-12-17T11:19:51Z</time>
   </trkpt>
   <trkpt lat="53.4506300" lon="-6.1587340">
    <ele>11.6</ele>
    <time>2025-12-17T11:19:57Z</time>
   </trkpt>
   <trkpt lat="53.4506860" lon="-6.1587060">
    <ele>11.6</ele>
    <time>2025-12-17T11:20:02Z</time>
   </trkpt>
   <trkpt lat="53.4507470" lon="-6.1586730">
    <ele>11.6</ele>
    <time>2025-12-17T11:20:07Z</time>
   </trkpt>
   <trkpt lat="53.4507980" lon="-6.1586200">
    <ele>11.3</ele>
    <time>2025-12-17T11:20:12Z</time>
   </trkpt>
   <trkpt lat="53.4508250" lon="-6.1585220">
    <ele>10.7</ele>
    <time>2025-12-17T11:20:18Z</time>
   </trkpt>
   <trkpt lat="53.4508710" lon="-6.1584330">
    <ele>10.5</ele>
    <time>2025-12-17T11:20:23Z</time>
   </trkpt>
   <trkpt lat="53.4509280" lon="-6.1583800">
    <ele>10.4</ele>
    <time>2025-12-17T11:20:28Z</time>
   </trkpt>
   <trkpt lat="53.4509580" lon="-6.1583050">
    <ele>10.3</ele>
    <time>2025-12-17T11:20:33Z</time>
   </trkpt>
   <trkpt lat="53.4509480" lon="-6.1582170">
    <ele>10.3</ele>
    <time>2025-12-17T11:20:38Z</time>
   </trkpt>
   <trkpt lat="53.4509570" lon="-6.1581300">
    <ele>10.2</ele>
    <time>2025-12-17T11:20:43Z</time>
   </trkpt>
   <trkpt lat="53.4510170" lon="-6.1580530">
    <ele>9.6</ele>
    <time>2025-12-17T11:20:49Z</time>
   </trkpt>
   <trkpt lat="53.4510360" lon="-6.1579020">
    <ele>9.6</ele>
    <time>2025-12-17T11:20:54Z</time>
   </trkpt>
   <trkpt lat="53.4510220" lon="-6.1577700">
    <ele>9.6</ele>
    <time>2025-12-17T11:20:59Z</time>
   </trkpt>
   <trkpt lat="53.4510020" lon="-6.1576430">
    <ele>9.4</ele>
    <time>2025-12-17T11:21:05Z</time>
   </trkpt>
   <trkpt lat="53.4510110" lon="-6.1575200">
    <ele>8.6</ele>
    <time>2025-12-17T11:21:10Z</time>
   </trkpt>
   <trkpt lat="53.4510320" lon="-6.1573860">
    <ele>8.1</ele>
    <time>2025-12-17T11:21:16Z</time>
   </trkpt>
   <trkpt lat="53.4510540" lon="-6.1572500">
    <ele>8.3</ele>
    <time>2025-12-17T11:21:21Z</time>
   </trkpt>
   <trkpt lat="53.4510460" lon="-6.1571290">
    <ele>8.7</ele>
    <time>2025-12-17T11:21:27Z</time>
   </trkpt>
   <trkpt lat="53.4510610" lon="-6.1570450">
    <ele>8.8</ele>
    <time>2025-12-17T11:21:32Z</time>
   </trkpt>
  </trkseg>
 </trk>
</gpx>
